sensor_id;sensor_type;location;lat;lon;timestamp;P1;durP1;ratioP1;P2;durP2;ratioP2
249;SDS011;109;19.806;-70.704;2023-04-24T00:01:04;5.30;;;2.93;;
249;SDS011;109;19.806;-70.704;2023-04-24T00:03:32;5.80;;;3.40;;
249;SDS011;109;19.806;-70.704;2023-04-24T00:06:00;8.00;;;3.60;;
249;SDS011;109;19.806;-70.704;2023-04-24T00:08:26;9.40;;;3.00;;
249;SDS011;109;19.806;-70.704;2023-04-24T00:10:53;6.57;;;3.03;;
249;SDS011;109;19.806;-70.704;2023-04-24T00:13:19;4.20;;;2.40;;
249;SDS011;109;19.806;-70.704;2023-04-24T00:15:46;5.50;;;3.10;;
249;SDS011;109;19.806;-70.704;2023-04-24T00:18:13;3.10;;;2.40;;
249;SDS011;109;19.806;-70.704;2023-04-24T00:20:39;5.53;;;2.70;;
249;SDS011;109;19.806;-70.704;2023-04-24T00:23:06;5.10;;;2.73;;
249;SDS011;109;19.806;-70.704;2023-04-24T00:25:32;4.63;;;2.40;;
249;SDS011;109;19.806;-70.704;2023-04-24T00:27:59;3.90;;;2.30;;
249;SDS011;109;19.806;-70.704;2023-04-24T00:30:25;5.70;;;2.60;;
249;SDS011;109;19.806;-70.704;2023-04-24T00:32:52;5.97;;;2.80;;
249;SDS011;109;19.806;-70.704;2023-04-24T00:35:18;4.10;;;2.80;;
249;SDS011;109;19.806;-70.704;2023-04-24T00:37:45;8.37;;;3.70;;
249;SDS011;109;19.806;-70.704;2023-04-24T00:40:12;6.43;;;4.00;;
249;SDS011;109;19.806;-70.704;2023-04-24T00:42:39;17.93;;;4.53;;
249;SDS011;109;19.806;-70.704;2023-04-24T00:45:06;8.07;;;4.00;;
249;SDS011;109;19.806;-70.704;2023-04-24T00:47:33;10.10;;;4.47;;
249;SDS011;109;19.806;-70.704;2023-04-24T00:50:01;7.87;;;4.47;;
249;SDS011;109;19.806;-70.704;2023-04-24T00:52:29;11.70;;;5.60;;
249;SDS011;109;19.806;-70.704;2023-04-24T00:54:57;16.93;;;5.70;;
249;SDS011;109;19.806;-70.704;2023-04-24T00:57:24;12.30;;;4.70;;
249;SDS011;109;19.806;-70.704;2023-04-24T00:59:51;13.83;;;5.70;;
249;SDS011;109;19.806;-70.704;2023-04-24T01:02:19;11.90;;;4.90;;
249;SDS011;109;19.806;-70.704;2023-04-24T01:04:46;9.90;;;5.30;;
249;SDS011;109;19.806;-70.704;2023-04-24T01:07:13;10.77;;;5.70;;
249;SDS011;109;19.806;-70.704;2023-04-24T01:09:40;8.53;;;5.13;;
249;SDS011;109;19.806;-70.704;2023-04-24T01:12:12;13.20;;;5.43;;
249;SDS011;109;19.806;-70.704;2023-04-24T01:14:39;14.07;;;5.17;;
249;SDS011;109;19.806;-70.704;2023-04-24T01:17:07;10.17;;;5.17;;
249;SDS011;109;19.806;-70.704;2023-04-24T01:19:34;10.43;;;5.20;;
249;SDS011;109;19.806;-70.704;2023-04-24T01:22:03;13.57;;;4.90;;
249;SDS011;109;19.806;-70.704;2023-04-24T01:24:34;13.40;;;5.93;;
249;SDS011;109;19.806;-70.704;2023-04-24T01:27:01;10.73;;;6.47;;
249;SDS011;109;19.806;-70.704;2023-04-24T01:29:28;10.20;;;6.23;;
249;SDS011;109;19.806;-70.704;2023-04-24T01:31:54;11.07;;;5.00;;
249;SDS011;109;19.806;-70.704;2023-04-24T01:34:21;13.13;;;5.67;;
249;SDS011;109;19.806;-70.704;2023-04-24T01:36:48;12.00;;;5.10;;
249;SDS011;109;19.806;-70.704;2023-04-24T01:39:16;11.40;;;5.20;;
249;SDS011;109;19.806;-70.704;2023-04-24T01:41:42;8.77;;;5.17;;
249;SDS011;109;19.806;-70.704;2023-04-24T01:44:09;10.40;;;5.03;;
249;SDS011;109;19.806;-70.704;2023-04-24T01:46:36;8.93;;;5.10;;
249;SDS011;109;19.806;-70.704;2023-04-24T01:49:03;9.80;;;4.57;;
249;SDS011;109;19.806;-70.704;2023-04-24T01:51:30;9.70;;;4.30;;
249;SDS011;109;19.806;-70.704;2023-04-24T01:54:03;8.27;;;4.57;;
249;SDS011;109;19.806;-70.704;2023-04-24T01:56:31;6.13;;;4.00;;
249;SDS011;109;19.806;-70.704;2023-04-24T01:59:11;13.30;;;4.67;;
249;SDS011;109;19.806;-70.704;2023-04-24T02:01:45;12.60;;;4.63;;
249;SDS011;109;19.806;-70.704;2023-04-24T02:04:11;10.27;;;4.93;;
249;SDS011;109;19.806;-70.704;2023-04-24T02:06:46;14.40;;;4.53;;
249;SDS011;109;19.806;-70.704;2023-04-24T02:09:13;8.57;;;4.40;;
249;SDS011;109;19.806;-70.704;2023-04-24T02:11:46;9.20;;;4.87;;
249;SDS011;109;19.806;-70.704;2023-04-24T02:14:12;9.90;;;4.57;;
249;SDS011;109;19.806;-70.704;2023-04-24T02:16:45;9.07;;;4.10;;
249;SDS011;109;19.806;-70.704;2023-04-24T02:19:11;11.87;;;3.90;;
249;SDS011;109;19.806;-70.704;2023-04-24T02:21:45;10.23;;;4.37;;
249;SDS011;109;19.806;-70.704;2023-04-24T02:24:11;11.10;;;4.00;;
249;SDS011;109;19.806;-70.704;2023-04-24T02:26:45;11.57;;;4.33;;
249;SDS011;109;19.806;-70.704;2023-04-24T02:29:12;12.93;;;4.90;;
249;SDS011;109;19.806;-70.704;2023-04-24T02:31:45;9.90;;;5.07;;
249;SDS011;109;19.806;-70.704;2023-04-24T02:34:13;9.63;;;4.90;;
249;SDS011;109;19.806;-70.704;2023-04-24T02:36:47;9.93;;;5.00;;
249;SDS011;109;19.806;-70.704;2023-04-24T02:39:14;19.73;;;6.10;;
249;SDS011;109;19.806;-70.704;2023-04-24T02:41:51;12.00;;;5.00;;
249;SDS011;109;19.806;-70.704;2023-04-24T02:44:18;10.63;;;4.60;;
249;SDS011;109;19.806;-70.704;2023-04-24T02:46:58;9.33;;;4.43;;
249;SDS011;109;19.806;-70.704;2023-04-24T02:49:32;8.93;;;4.23;;
249;SDS011;109;19.806;-70.704;2023-04-24T02:51:58;8.23;;;3.97;;
249;SDS011;109;19.806;-70.704;2023-04-24T02:54:32;8.40;;;4.10;;
249;SDS011;109;19.806;-70.704;2023-04-24T02:56:58;9.00;;;3.70;;
249;SDS011;109;19.806;-70.704;2023-04-24T02:59:33;9.10;;;3.70;;
249;SDS011;109;19.806;-70.704;2023-04-24T03:02:00;7.37;;;3.20;;
249;SDS011;109;19.806;-70.704;2023-04-24T03:04:33;5.83;;;3.60;;
249;SDS011;109;19.806;-70.704;2023-04-24T03:06:59;6.33;;;3.40;;
249;SDS011;109;19.806;-70.704;2023-04-24T03:09:33;13.33;;;3.53;;
249;SDS011;109;19.806;-70.704;2023-04-24T03:12:00;5.17;;;3.23;;
249;SDS011;109;19.806;-70.704;2023-04-24T03:14:33;10.10;;;3.50;;
249;SDS011;109;19.806;-70.704;2023-04-24T03:17:00;8.30;;;3.63;;
249;SDS011;109;19.806;-70.704;2023-04-24T03:19:33;7.77;;;3.87;;
249;SDS011;109;19.806;-70.704;2023-04-24T03:22:04;12.00;;;3.70;;
249;SDS011;109;19.806;-70.704;2023-04-24T03:24:39;9.60;;;4.00;;
249;SDS011;109;19.806;-70.704;2023-04-24T03:27:06;8.53;;;3.27;;
249;SDS011;109;19.806;-70.704;2023-04-24T03:30:02;8.20;;;3.77;;
249;SDS011;109;19.806;-70.704;2023-04-24T03:32:46;8.27;;;3.73;;
249;SDS011;109;19.806;-70.704;2023-04-24T03:35:24;9.70;;;3.83;;
249;SDS011;109;19.806;-70.704;2023-04-24T03:38:00;4.70;;;3.10;;
249;SDS011;109;19.806;-70.704;2023-04-24T03:41:00;10.87;;;3.60;;
249;SDS011;109;19.806;-70.704;2023-04-24T03:43:39;6.70;;;3.93;;
249;SDS011;109;19.806;-70.704;2023-04-24T03:46:12;9.63;;;3.97;;
249;SDS011;109;19.806;-70.704;2023-04-24T03:49:04;6.17;;;3.20;;
249;SDS011;109;19.806;-70.704;2023-04-24T03:51:43;5.87;;;3.37;;
249;SDS011;109;19.806;-70.704;2023-04-24T03:54:20;8.47;;;3.83;;
249;SDS011;109;19.806;-70.704;2023-04-24T03:56:53;7.17;;;3.43;;
249;SDS011;109;19.806;-70.704;2023-04-24T03:59:20;6.07;;;3.40;;
249;SDS011;109;19.806;-70.704;2023-04-24T04:02:09;6.60;;;2.93;;
249;SDS011;109;19.806;-70.704;2023-04-24T04:04:42;10.33;;;3.63;;
249;SDS011;109;19.806;-70.704;2023-04-24T04:07:09;7.60;;;3.20;;
249;SDS011;109;19.806;-70.704;2023-04-24T04:09:43;7.70;;;3.00;;
249;SDS011;109;19.806;-70.704;2023-04-24T04:12:10;7.10;;;2.97;;
249;SDS011;109;19.806;-70.704;2023-04-24T04:14:50;6.30;;;3.10;;
249;SDS011;109;19.806;-70.704;2023-04-24T04:17:23;6.13;;;3.10;;
249;SDS011;109;19.806;-70.704;2023-04-24T04:19:50;8.80;;;3.13;;
249;SDS011;109;19.806;-70.704;2023-04-24T04:22:23;6.37;;;3.20;;
249;SDS011;109;19.806;-70.704;2023-04-24T04:24:51;4.57;;;2.90;;
249;SDS011;109;19.806;-70.704;2023-04-24T04:27:25;5.60;;;3.23;;
249;SDS011;109;19.806;-70.704;2023-04-24T04:29:59;4.87;;;3.20;;
249;SDS011;109;19.806;-70.704;2023-04-24T04:32:56;7.73;;;3.43;;
249;SDS011;109;19.806;-70.704;2023-04-24T04:35:30;8.27;;;3.27;;
249;SDS011;109;19.806;-70.704;2023-04-24T04:37:58;5.70;;;3.07;;
249;SDS011;109;19.806;-70.704;2023-04-24T04:40:57;9.30;;;3.23;;
249;SDS011;109;19.806;-70.704;2023-04-24T04:43:32;8.23;;;3.27;;
249;SDS011;109;19.806;-70.704;2023-04-24T04:45:59;6.10;;;3.40;;
249;SDS011;109;19.806;-70.704;2023-04-24T04:49:05;5.30;;;3.13;;
249;SDS011;109;19.806;-70.704;2023-04-24T04:51:38;9.40;;;3.13;;
249;SDS011;109;19.806;-70.704;2023-04-24T04:54:05;11.20;;;4.03;;
249;SDS011;109;19.806;-70.704;2023-04-24T04:56:38;5.67;;;3.30;;
249;SDS011;109;19.806;-70.704;2023-04-24T04:59:05;8.37;;;3.43;;
249;SDS011;109;19.806;-70.704;2023-04-24T05:01:38;6.90;;;3.17;;
249;SDS011;109;19.806;-70.704;2023-04-24T05:04:07;5.30;;;3.30;;
249;SDS011;109;19.806;-70.704;2023-04-24T05:06:40;10.10;;;3.30;;
249;SDS011;109;19.806;-70.704;2023-04-24T05:09:14;5.90;;;3.20;;
249;SDS011;109;19.806;-70.704;2023-04-24T05:11:52;4.90;;;3.20;;
249;SDS011;109;19.806;-70.704;2023-04-24T05:14:26;5.10;;;2.80;;
249;SDS011;109;19.806;-70.704;2023-04-24T05:16:53;7.87;;;3.60;;
249;SDS011;109;19.806;-70.704;2023-04-24T05:19:26;5.43;;;3.00;;
249;SDS011;109;19.806;-70.704;2023-04-24T05:21:53;7.83;;;3.20;;
249;SDS011;109;19.806;-70.704;2023-04-24T05:24:26;7.20;;;3.20;;
249;SDS011;109;19.806;-70.704;2023-04-24T05:26:59;5.77;;;3.10;;
249;SDS011;109;19.806;-70.704;2023-04-24T05:29:37;11.83;;;3.40;;
249;SDS011;109;19.806;-70.704;2023-04-24T05:32:10;6.20;;;3.10;;
249;SDS011;109;19.806;-70.704;2023-04-24T05:34:37;8.63;;;3.07;;
249;SDS011;109;19.806;-70.704;2023-04-24T05:37:10;5.13;;;3.80;;
249;SDS011;109;19.806;-70.704;2023-04-24T05:39:37;4.20;;;3.30;;
249;SDS011;109;19.806;-70.704;2023-04-24T05:42:10;7.43;;;3.80;;
249;SDS011;109;19.806;-70.704;2023-04-24T05:44:37;10.70;;;3.83;;
249;SDS011;109;19.806;-70.704;2023-04-24T05:47:10;11.40;;;3.50;;
249;SDS011;109;19.806;-70.704;2023-04-24T05:49:51;5.73;;;3.13;;
249;SDS011;109;19.806;-70.704;2023-04-24T05:52:19;8.33;;;4.00;;
249;SDS011;109;19.806;-70.704;2023-04-24T05:54:52;6.03;;;3.37;;
249;SDS011;109;19.806;-70.704;2023-04-24T05:57:23;6.60;;;3.60;;
249;SDS011;109;19.806;-70.704;2023-04-24T06:00:01;6.43;;;3.00;;
249;SDS011;109;19.806;-70.704;2023-04-24T06:02:53;4.33;;;3.27;;
249;SDS011;109;19.806;-70.704;2023-04-24T06:05:27;5.57;;;3.00;;
249;SDS011;109;19.806;-70.704;2023-04-24T06:07:53;7.40;;;3.67;;
249;SDS011;109;19.806;-70.704;2023-04-24T06:10:32;9.43;;;3.50;;
249;SDS011;109;19.806;-70.704;2023-04-24T06:13:07;8.60;;;3.30;;
249;SDS011;109;19.806;-70.704;2023-04-24T06:15:36;6.43;;;3.50;;
249;SDS011;109;19.806;-70.704;2023-04-24T06:18:15;6.07;;;3.10;;
249;SDS011;109;19.806;-70.704;2023-04-24T06:20:48;8.43;;;2.80;;
249;SDS011;109;19.806;-70.704;2023-04-24T06:23:15;5.27;;;3.17;;
249;SDS011;109;19.806;-70.704;2023-04-24T06:25:48;8.33;;;3.40;;
249;SDS011;109;19.806;-70.704;2023-04-24T06:28:15;6.77;;;3.17;;
249;SDS011;109;19.806;-70.704;2023-04-24T06:30:48;7.63;;;3.73;;
249;SDS011;109;19.806;-70.704;2023-04-24T06:33:15;5.53;;;3.10;;
249;SDS011;109;19.806;-70.704;2023-04-24T06:35:49;4.80;;;3.10;;
249;SDS011;109;19.806;-70.704;2023-04-24T06:38:16;7.43;;;3.00;;
249;SDS011;109;19.806;-70.704;2023-04-24T06:40:49;6.40;;;3.43;;
249;SDS011;109;19.806;-70.704;2023-04-24T06:43:16;6.27;;;3.10;;
249;SDS011;109;19.806;-70.704;2023-04-24T06:45:49;5.40;;;3.10;;
249;SDS011;109;19.806;-70.704;2023-04-24T06:48:36;4.30;;;3.30;;
249;SDS011;109;19.806;-70.704;2023-04-24T06:51:09;5.10;;;3.20;;
249;SDS011;109;19.806;-70.704;2023-04-24T06:53:35;4.20;;;2.80;;
249;SDS011;109;19.806;-70.704;2023-04-24T06:56:09;5.07;;;2.83;;
249;SDS011;109;19.806;-70.704;2023-04-24T06:58:36;5.60;;;3.27;;
249;SDS011;109;19.806;-70.704;2023-04-24T07:01:17;4.30;;;3.17;;
249;SDS011;109;19.806;-70.704;2023-04-24T07:03:50;6.43;;;3.07;;
249;SDS011;109;19.806;-70.704;2023-04-24T07:06:17;6.77;;;2.90;;
249;SDS011;109;19.806;-70.704;2023-04-24T07:08:55;6.40;;;3.10;;
249;SDS011;109;19.806;-70.704;2023-04-24T07:11:22;5.27;;;2.93;;
249;SDS011;109;19.806;-70.704;2023-04-24T07:13:56;5.73;;;2.87;;
249;SDS011;109;19.806;-70.704;2023-04-24T07:16:23;7.47;;;2.80;;
249;SDS011;109;19.806;-70.704;2023-04-24T07:19:04;7.27;;;2.97;;
249;SDS011;109;19.806;-70.704;2023-04-24T07:21:37;8.37;;;3.50;;
249;SDS011;109;19.806;-70.704;2023-04-24T07:24:03;7.83;;;5.43;;
249;SDS011;109;19.806;-70.704;2023-04-24T07:26:37;11.53;;;7.40;;
249;SDS011;109;19.806;-70.704;2023-04-24T07:29:05;18.90;;;10.60;;
249;SDS011;109;19.806;-70.704;2023-04-24T07:31:39;22.57;;;14.00;;
249;SDS011;109;19.806;-70.704;2023-04-24T07:34:06;19.73;;;12.30;;
249;SDS011;109;19.806;-70.704;2023-04-24T07:36:40;18.20;;;10.30;;
249;SDS011;109;19.806;-70.704;2023-04-24T07:39:07;14.90;;;6.87;;
249;SDS011;109;19.806;-70.704;2023-04-24T07:41:40;11.17;;;5.80;;
249;SDS011;109;19.806;-70.704;2023-04-24T07:44:06;10.67;;;5.20;;
249;SDS011;109;19.806;-70.704;2023-04-24T07:46:40;7.67;;;4.03;;
249;SDS011;109;19.806;-70.704;2023-04-24T07:49:27;4.63;;;3.43;;
249;SDS011;109;19.806;-70.704;2023-04-24T07:52:00;8.53;;;3.47;;
249;SDS011;109;19.806;-70.704;2023-04-24T07:54:28;8.93;;;3.93;;
249;SDS011;109;19.806;-70.704;2023-04-24T07:57:01;5.10;;;3.47;;
249;SDS011;109;19.806;-70.704;2023-04-24T07:59:27;6.40;;;3.03;;
249;SDS011;109;19.806;-70.704;2023-04-24T08:02:01;4.30;;;3.17;;
249;SDS011;109;19.806;-70.704;2023-04-24T08:04:28;10.97;;;3.20;;
249;SDS011;109;19.806;-70.704;2023-04-24T08:07:01;4.67;;;2.90;;
249;SDS011;109;19.806;-70.704;2023-04-24T08:09:28;4.40;;;3.20;;
249;SDS011;109;19.806;-70.704;2023-04-24T08:12:01;6.93;;;3.43;;
249;SDS011;109;19.806;-70.704;2023-04-24T08:14:28;5.70;;;3.07;;
249;SDS011;109;19.806;-70.704;2023-04-24T08:17:01;7.63;;;3.40;;
249;SDS011;109;19.806;-70.704;2023-04-24T08:19:36;6.60;;;3.33;;
249;SDS011;109;19.806;-70.704;2023-04-24T08:22:09;6.10;;;3.67;;
249;SDS011;109;19.806;-70.704;2023-04-24T08:24:35;5.23;;;3.20;;
249;SDS011;109;19.806;-70.704;2023-04-24T08:27:08;5.57;;;3.00;;
249;SDS011;109;19.806;-70.704;2023-04-24T08:29:36;5.17;;;3.30;;
249;SDS011;109;19.806;-70.704;2023-04-24T08:32:09;5.70;;;3.63;;
249;SDS011;109;19.806;-70.704;2023-04-24T08:34:35;7.40;;;3.00;;
249;SDS011;109;19.806;-70.704;2023-04-24T08:37:08;7.07;;;3.30;;
249;SDS011;109;19.806;-70.704;2023-04-24T08:39:35;4.83;;;3.47;;
249;SDS011;109;19.806;-70.704;2023-04-24T08:42:08;5.87;;;3.20;;
249;SDS011;109;19.806;-70.704;2023-04-24T08:44:37;8.20;;;3.63;;
249;SDS011;109;19.806;-70.704;2023-04-24T08:47:10;10.70;;;3.77;;
249;SDS011;109;19.806;-70.704;2023-04-24T08:49:58;6.13;;;3.40;;
249;SDS011;109;19.806;-70.704;2023-04-24T08:52:34;5.70;;;2.73;;
249;SDS011;109;19.806;-70.704;2023-04-24T08:55:01;5.87;;;3.20;;
249;SDS011;109;19.806;-70.704;2023-04-24T08:57:35;7.00;;;4.23;;
249;SDS011;109;19.806;-70.704;2023-04-24T09:00:03;7.57;;;3.30;;
249;SDS011;109;19.806;-70.704;2023-04-24T09:02:39;7.00;;;3.30;;
249;SDS011;109;19.806;-70.704;2023-04-24T09:05:18;5.00;;;3.10;;
249;SDS011;109;19.806;-70.704;2023-04-24T09:07:56;7.60;;;3.40;;
249;SDS011;109;19.806;-70.704;2023-04-24T09:10:24;5.20;;;3.27;;
249;SDS011;109;19.806;-70.704;2023-04-24T09:12:58;5.57;;;3.00;;
249;SDS011;109;19.806;-70.704;2023-04-24T09:15:27;5.30;;;3.40;;
249;SDS011;109;19.806;-70.704;2023-04-24T09:18:01;8.07;;;3.63;;
249;SDS011;109;19.806;-70.704;2023-04-24T09:20:56;8.70;;;3.60;;
249;SDS011;109;19.806;-70.704;2023-04-24T09:23:33;7.00;;;3.30;;
249;SDS011;109;19.806;-70.704;2023-04-24T09:26:00;9.30;;;2.87;;
249;SDS011;109;19.806;-70.704;2023-04-24T09:28:37;7.50;;;3.30;;
249;SDS011;109;19.806;-70.704;2023-04-24T09:31:07;6.40;;;3.60;;
249;SDS011;109;19.806;-70.704;2023-04-24T09:33:56;10.20;;;3.20;;
249;SDS011;109;19.806;-70.704;2023-04-24T09:36:43;6.50;;;3.10;;
249;SDS011;109;19.806;-70.704;2023-04-24T09:39:16;8.33;;;3.93;;
249;SDS011;109;19.806;-70.704;2023-04-24T09:41:52;5.47;;;3.33;;
249;SDS011;109;19.806;-70.704;2023-04-24T09:44:28;9.70;;;3.40;;
249;SDS011;109;19.806;-70.704;2023-04-24T09:46:56;6.73;;;3.37;;
249;SDS011;109;19.806;-70.704;2023-04-24T09:49:30;6.57;;;3.43;;
249;SDS011;109;19.806;-70.704;2023-04-24T09:52:11;9.53;;;3.63;;
249;SDS011;109;19.806;-70.704;2023-04-24T09:54:38;7.93;;;3.87;;
249;SDS011;109;19.806;-70.704;2023-04-24T09:57:11;9.10;;;3.40;;
249;SDS011;109;19.806;-70.704;2023-04-24T09:59:45;6.47;;;3.57;;
249;SDS011;109;19.806;-70.704;2023-04-24T10:02:19;8.30;;;3.80;;
249;SDS011;109;19.806;-70.704;2023-04-24T10:04:55;8.93;;;3.50;;
249;SDS011;109;19.806;-70.704;2023-04-24T10:07:32;5.30;;;3.47;;
249;SDS011;109;19.806;-70.704;2023-04-24T10:09:59;9.43;;;3.70;;
249;SDS011;109;19.806;-70.704;2023-04-24T10:12:32;5.37;;;3.30;;
249;SDS011;109;19.806;-70.704;2023-04-24T10:14:59;7.03;;;3.73;;
249;SDS011;109;19.806;-70.704;2023-04-24T10:17:33;9.60;;;4.20;;
249;SDS011;109;19.806;-70.704;2023-04-24T10:20:01;12.67;;;4.10;;
249;SDS011;109;19.806;-70.704;2023-04-24T10:22:34;12.20;;;3.73;;
249;SDS011;109;19.806;-70.704;2023-04-24T10:25:03;7.20;;;3.90;;
249;SDS011;109;19.806;-70.704;2023-04-24T10:27:37;9.53;;;4.20;;
249;SDS011;109;19.806;-70.704;2023-04-24T10:56:24;6.13;;;3.97;;
249;SDS011;109;19.806;-70.704;2023-04-24T10:58:37;6.13;;;3.80;;
249;SDS011;109;19.806;-70.704;2023-04-24T11:04:01;11.70;;;4.20;;
249;SDS011;109;19.806;-70.704;2023-04-24T11:06:29;8.30;;;4.10;;
249;SDS011;109;19.806;-70.704;2023-04-24T11:09:04;7.97;;;4.00;;
249;SDS011;109;19.806;-70.704;2023-04-24T11:11:32;8.00;;;4.43;;
249;SDS011;109;19.806;-70.704;2023-04-24T11:16:27;6.37;;;3.77;;
249;SDS011;109;19.806;-70.704;2023-04-24T11:19:18;8.83;;;4.00;;
249;SDS011;109;19.806;-70.704;2023-04-24T11:22:01;8.43;;;4.27;;
249;SDS011;109;19.806;-70.704;2023-04-24T11:24:31;15.00;;;4.80;;
249;SDS011;109;19.806;-70.704;2023-04-24T11:29:48;10.30;;;4.20;;
249;SDS011;109;19.806;-70.704;2023-04-24T11:32:26;9.67;;;4.67;;
249;SDS011;109;19.806;-70.704;2023-04-24T11:35:06;9.00;;;4.10;;
249;SDS011;109;19.806;-70.704;2023-04-24T11:37:40;9.87;;;5.40;;
249;SDS011;109;19.806;-70.704;2023-04-24T11:40:20;13.50;;;5.77;;
249;SDS011;109;19.806;-70.704;2023-04-24T11:42:54;9.63;;;4.80;;
249;SDS011;109;19.806;-70.704;2023-04-24T11:45:25;11.07;;;4.40;;
249;SDS011;109;19.806;-70.704;2023-04-24T11:47:53;8.70;;;3.93;;
249;SDS011;109;19.806;-70.704;2023-04-24T11:50:20;9.77;;;4.47;;
249;SDS011;109;19.806;-70.704;2023-04-24T11:52:52;10.67;;;4.10;;
249;SDS011;109;19.806;-70.704;2023-04-24T11:57:46;12.10;;;4.17;;
249;SDS011;109;19.806;-70.704;2023-04-24T12:00:17;11.90;;;4.10;;
249;SDS011;109;19.806;-70.704;2023-04-24T12:02:48;6.30;;;3.60;;
249;SDS011;109;19.806;-70.704;2023-04-24T12:05:19;10.30;;;3.33;;
249;SDS011;109;19.806;-70.704;2023-04-24T12:07:46;5.03;;;3.60;;
249;SDS011;109;19.806;-70.704;2023-04-24T12:10:13;5.23;;;2.67;;
249;SDS011;109;19.806;-70.704;2023-04-24T12:12:40;9.63;;;3.10;;
249;SDS011;109;19.806;-70.704;2023-04-24T12:15:07;4.30;;;2.60;;
249;SDS011;109;19.806;-70.704;2023-04-24T12:17:34;5.83;;;2.90;;
249;SDS011;109;19.806;-70.704;2023-04-24T12:20:05;7.03;;;2.80;;
249;SDS011;109;19.806;-70.704;2023-04-24T12:25:15;5.07;;;2.60;;
249;SDS011;109;19.806;-70.704;2023-04-24T12:27:43;3.40;;;2.40;;
249;SDS011;109;19.806;-70.704;2023-04-24T12:30:14;7.63;;;2.40;;
249;SDS011;109;19.806;-70.704;2023-04-24T12:32:42;7.77;;;2.80;;
249;SDS011;109;19.806;-70.704;2023-04-24T12:35:10;5.20;;;2.53;;
249;SDS011;109;19.806;-70.704;2023-04-24T12:37:37;9.43;;;2.43;;
249;SDS011;109;19.806;-70.704;2023-04-24T12:42:33;4.70;;;2.00;;
249;SDS011;109;19.806;-70.704;2023-04-24T12:45:02;4.10;;;2.40;;
249;SDS011;109;19.806;-70.704;2023-04-24T12:47:31;8.83;;;2.77;;
249;SDS011;109;19.806;-70.704;2023-04-24T12:49:59;11.83;;;3.20;;
249;SDS011;109;19.806;-70.704;2023-04-24T12:52:26;8.97;;;3.03;;
249;SDS011;109;19.806;-70.704;2023-04-24T12:54:55;6.40;;;3.30;;
249;SDS011;109;19.806;-70.704;2023-04-24T12:57:23;4.70;;;2.37;;
249;SDS011;109;19.806;-70.704;2023-04-24T12:59:51;6.53;;;2.47;;
249;SDS011;109;19.806;-70.704;2023-04-24T13:02:22;7.53;;;2.43;;
249;SDS011;109;19.806;-70.704;2023-04-24T13:04:49;5.43;;;2.10;;
249;SDS011;109;19.806;-70.704;2023-04-24T13:07:16;6.33;;;2.50;;
249;SDS011;109;19.806;-70.704;2023-04-24T13:09:44;5.50;;;2.10;;
249;SDS011;109;19.806;-70.704;2023-04-24T13:12:11;8.30;;;2.67;;
249;SDS011;109;19.806;-70.704;2023-04-24T13:14:38;7.60;;;3.00;;
249;SDS011;109;19.806;-70.704;2023-04-24T13:17:04;5.03;;;3.10;;
249;SDS011;109;19.806;-70.704;2023-04-24T13:19:35;12.47;;;3.40;;
249;SDS011;109;19.806;-70.704;2023-04-24T13:22:05;6.77;;;2.80;;
249;SDS011;109;19.806;-70.704;2023-04-24T13:24:32;5.17;;;2.50;;
249;SDS011;109;19.806;-70.704;2023-04-24T13:26:59;10.20;;;3.47;;
249;SDS011;109;19.806;-70.704;2023-04-24T13:29:26;11.53;;;2.90;;
249;SDS011;109;19.806;-70.704;2023-04-24T13:31:53;6.13;;;2.87;;
249;SDS011;109;19.806;-70.704;2023-04-24T13:34:21;6.50;;;2.50;;
249;SDS011;109;19.806;-70.704;2023-04-24T13:36:48;12.00;;;2.67;;
249;SDS011;109;19.806;-70.704;2023-04-24T13:39:16;4.83;;;2.80;;
249;SDS011;109;19.806;-70.704;2023-04-24T13:41:43;5.80;;;2.40;;
249;SDS011;109;19.806;-70.704;2023-04-24T13:44:10;6.87;;;2.50;;
249;SDS011;109;19.806;-70.704;2023-04-24T13:46:36;10.47;;;2.93;;
249;SDS011;109;19.806;-70.704;2023-04-24T13:49:03;8.20;;;2.37;;
249;SDS011;109;19.806;-70.704;2023-04-24T13:51:30;4.90;;;2.50;;
249;SDS011;109;19.806;-70.704;2023-04-24T13:53:56;6.57;;;2.57;;
249;SDS011;109;19.806;-70.704;2023-04-24T13:56:23;7.73;;;2.83;;
249;SDS011;109;19.806;-70.704;2023-04-24T13:58:49;13.23;;;3.80;;
249;SDS011;109;19.806;-70.704;2023-04-24T14:01:16;53.33;;;7.67;;
249;SDS011;109;19.806;-70.704;2023-04-24T14:03:42;5.50;;;2.50;;
249;SDS011;109;19.806;-70.704;2023-04-24T14:06:09;10.43;;;2.83;;
249;SDS011;109;19.806;-70.704;2023-04-24T14:08:35;9.40;;;2.37;;
249;SDS011;109;19.806;-70.704;2023-04-24T14:11:02;7.07;;;2.40;;
249;SDS011;109;19.806;-70.704;2023-04-24T14:13:28;10.73;;;2.63;;
249;SDS011;109;19.806;-70.704;2023-04-24T14:15:55;50.97;;;7.10;;
249;SDS011;109;19.806;-70.704;2023-04-24T14:18:21;6.73;;;2.50;;
249;SDS011;109;19.806;-70.704;2023-04-24T14:20:48;16.33;;;3.03;;
249;SDS011;109;19.806;-70.704;2023-04-24T14:23:16;33.63;;;4.80;;
249;SDS011;109;19.806;-70.704;2023-04-24T14:25:46;3.40;;;2.00;;
249;SDS011;109;19.806;-70.704;2023-04-24T14:28:17;5.67;;;2.23;;
249;SDS011;109;19.806;-70.704;2023-04-24T14:30:44;6.10;;;2.33;;
249;SDS011;109;19.806;-70.704;2023-04-24T14:33:10;5.07;;;1.90;;
249;SDS011;109;19.806;-70.704;2023-04-24T14:35:38;24.53;;;4.30;;
249;SDS011;109;19.806;-70.704;2023-04-24T14:38:06;15.93;;;3.77;;
249;SDS011;109;19.806;-70.704;2023-04-24T14:40:32;3.73;;;1.80;;
249;SDS011;109;19.806;-70.704;2023-04-24T14:42:59;11.37;;;2.63;;
249;SDS011;109;19.806;-70.704;2023-04-24T14:45:26;7.03;;;2.23;;
249;SDS011;109;19.806;-70.704;2023-04-24T14:47:53;4.37;;;2.00;;
249;SDS011;109;19.806;-70.704;2023-04-24T14:50:20;6.23;;;2.53;;
249;SDS011;109;19.806;-70.704;2023-04-24T14:52:47;9.87;;;2.80;;
249;SDS011;109;19.806;-70.704;2023-04-24T14:55:13;10.30;;;2.50;;
249;SDS011;109;19.806;-70.704;2023-04-24T14:57:40;4.80;;;2.07;;
249;SDS011;109;19.806;-70.704;2023-04-24T15:00:06;9.43;;;2.50;;
249;SDS011;109;19.806;-70.704;2023-04-24T15:02:37;6.30;;;2.00;;
249;SDS011;109;19.806;-70.704;2023-04-24T15:05:07;14.57;;;2.93;;
249;SDS011;109;19.806;-70.704;2023-04-24T15:07:34;42.77;;;8.20;;
249;SDS011;109;19.806;-70.704;2023-04-24T15:10:02;20.60;;;3.20;;
249;SDS011;109;19.806;-70.704;2023-04-24T15:12:29;32.33;;;4.60;;
249;SDS011;109;19.806;-70.704;2023-04-24T15:14:55;20.23;;;3.10;;
249;SDS011;109;19.806;-70.704;2023-04-24T15:17:24;16.43;;;2.50;;
249;SDS011;109;19.806;-70.704;2023-04-24T15:19:52;10.57;;;2.20;;
249;SDS011;109;19.806;-70.704;2023-04-24T15:22:18;10.40;;;2.00;;
249;SDS011;109;19.806;-70.704;2023-04-24T15:24:45;8.00;;;2.33;;
249;SDS011;109;19.806;-70.704;2023-04-24T15:27:11;8.13;;;2.30;;
249;SDS011;109;19.806;-70.704;2023-04-24T15:29:38;7.50;;;2.47;;
249;SDS011;109;19.806;-70.704;2023-04-24T15:32:05;12.53;;;2.37;;
249;SDS011;109;19.806;-70.704;2023-04-24T15:34:31;14.63;;;2.87;;
249;SDS011;109;19.806;-70.704;2023-04-24T15:36:58;5.27;;;2.13;;
249;SDS011;109;19.806;-70.704;2023-04-24T15:39:25;5.03;;;2.33;;
249;SDS011;109;19.806;-70.704;2023-04-24T15:41:52;7.67;;;2.23;;
249;SDS011;109;19.806;-70.704;2023-04-24T15:44:20;10.40;;;1.93;;
249;SDS011;109;19.806;-70.704;2023-04-24T15:46:47;7.93;;;2.50;;
249;SDS011;109;19.806;-70.704;2023-04-24T15:49:14;6.27;;;2.07;;
249;SDS011;109;19.806;-70.704;2023-04-24T15:51:40;7.50;;;2.10;;
249;SDS011;109;19.806;-70.704;2023-04-24T15:54:06;4.70;;;2.00;;
249;SDS011;109;19.806;-70.704;2023-04-24T15:56:33;11.53;;;2.23;;
249;SDS011;109;19.806;-70.704;2023-04-24T15:59:02;9.07;;;2.30;;
249;SDS011;109;19.806;-70.704;2023-04-24T16:01:29;5.13;;;2.10;;
249;SDS011;109;19.806;-70.704;2023-04-24T16:03:56;5.93;;;2.30;;
249;SDS011;109;19.806;-70.704;2023-04-24T16:06:22;5.37;;;1.90;;
249;SDS011;109;19.806;-70.704;2023-04-24T16:08:48;3.90;;;2.00;;
249;SDS011;109;19.806;-70.704;2023-04-24T16:11:15;6.80;;;2.40;;
249;SDS011;109;19.806;-70.704;2023-04-24T16:13:42;4.33;;;2.10;;
249;SDS011;109;19.806;-70.704;2023-04-24T16:16:08;5.47;;;2.10;;